Time;durP1;ratioP1;P1;durP2;ratioP2;P2;SDS_P1;SDS_P2;PMS_P1;PMS_P2;Temp;Humidity;BMP_temperature;BMP_pressure;BME280_temperature;BME280_humidity;BME280_pressure;Samples;Min_cycle;Max_cycle;Signal;HPM_P1;HPM_P2
2021/05/11 00:01:44;;;;;;;1.52;0.77;;;13.20;75.90;;;;;;5004814;28;20045;-80
2021/05/11 00:04:11;;;;;;;1.63;0.70;;;13.20;76.10;;;;;;5015554;28;20026;-80
2021/05/11 00:06:36;;;;;;;2.03;0.80;;;13.20;76.10;;;;;;4997841;28;20184;-80
2021/05/11 00:09:04;;;;;;;2.13;0.60;;;13.20;76.00;;;;;;5015429;28;20061;-80
2021/05/11 00:11:32;;;;;;;1.05;0.60;;;13.30;75.80;;;;;;5011280;28;20030;-80
2021/05/11 00:13:57;;;;;;;1.30;0.70;;;13.20;76.40;;;;;;4988905;28;20414;-80
2021/05/11 00:16:23;;;;;;;4.60;1.00;;;13.10;76.00;;;;;;4993425;28;20038;-80
2021/05/11 00:18:49;;;;;;;3.28;1.00;;;13.20;76.30;;;;;;4978097;28;20026;-80
2021/05/11 00:21:14;;;;;;;2.28;0.90;;;13.10;76.40;;;;;;4995787;28;20033;-80
2021/05/11 00:23:40;;;;;;;0.98;0.60;;;13.10;76.50;;;;;;4978237;28;20026;-80
2021/05/11 00:26:06;;;;;;;2.47;0.90;;;13.10;76.70;;;;;;5021807;28;20466;-81
2021/05/11 00:28:32;;;;;;;1.73;0.80;;;13.10;76.40;;;;;;5034949;28;20036;-80
2021/05/11 00:30:58;;;;;;;1.33;0.80;;;13.10;76.70;;;;;;5010245;28;20071;-81
2021/05/11 00:33:24;;;;;;;1.20;0.82;;;13.00;76.50;;;;;;4977918;28;20026;-80
2021/05/11 00:35:49;;;;;;;1.90;0.73;;;13.00;76.90;;;;;;4995529;28;20026;-80
2021/05/11 00:38:15;;;;;;;2.50;0.80;;;13.00;77.40;;;;;;4991859;28;20034;-80
2021/05/11 00:40:41;;;;;;;2.85;0.90;;;12.90;77.60;;;;;;4996375;28;20026;-80
2021/05/11 00:43:06;;;;;;;2.50;0.77;;;12.90;78.00;;;;;;4995417;28;20130;-80
2021/05/11 00:45:35;;;;;;;1.40;0.63;;;12.90;77.90;;;;;;4995199;28;20023;-80
2021/05/11 00:48:00;;;;;;;1.42;0.80;;;12.90;77.40;;;;;;4995396;28;20386;-80
2021/05/11 00:50:26;;;;;;;1.27;0.70;;;12.90;77.90;;;;;;4995174;28;20026;-80
2021/05/11 00:52:52;;;;;;;1.98;0.73;;;13.00;77.60;;;;;;4995246;28;20031;-80
2021/05/11 00:55:18;;;;;;;1.98;0.70;;;13.10;77.40;;;;;;4977402;28;20034;-81
2021/05/11 00:57:44;;;;;;;2.33;0.90;;;13.10;77.40;;;;;;4995522;28;20688;-80
2021/05/11 01:00:11;;;;;;;1.80;0.80;;;13.10;77.40;;;;;;4995216;28;20045;-80
2021/05/11 01:02:47;;;;;;;2.55;0.60;;;13.20;77.40;;;;;;4993650;28;20022;-80
2021/05/11 01:05:13;;;;;;;1.40;0.70;;;13.20;77.10;;;;;;4995039;28;20066;-80
2021/05/11 01:07:38;;;;;;;2.13;0.80;;;13.20;77.00;;;;;;4977149;28;20034;-80
2021/05/11 01:10:05;;;;;;;1.83;0.70;;;13.20;77.20;;;;;;4995183;28;20362;-80
2021/05/11 01:12:31;;;;;;;1.00;0.70;;;13.20;77.40;;;;;;4994909;28;20014;-80
2021/05/11 01:14:57;;;;;;;1.60;0.70;;;13.30;77.30;;;;;;4995091;28;20477;-80
2021/05/11 01:17:28;;;;;;;2.22;0.90;;;13.20;77.40;;;;;;4977352;28;20022;-81
2021/05/11 01:19:59;;;;;;;3.00;0.82;;;13.30;77.90;;;;;;4995394;28;20117;-80
2021/05/11 01:27:38;;;;;;;2.25;0.63;;;13.10;79.90;;;;;;5038208;28;20041;-80
2021/05/11 01:51:36;;;;;;;1.80;1.02;;;13.00;80.70;;;;;;4998661;28;20760;-80
2021/05/11 02:23:28;;;;;;;2.80;0.90;;;12.70;81.10;;;;;;4997719;28;20114;-81
2021/05/11 02:25:55;;;;;;;2.13;0.73;;;12.60;81.10;;;;;;5003913;28;20136;-80
2021/05/11 02:28:23;;;;;;;1.98;0.80;;;12.60;81.50;;;;;;5003653;28;20104;-80
2021/05/11 02:30:48;;;;;;;2.10;0.75;;;12.60;81.30;;;;;;4997852;28;20066;-80
2021/05/11 02:33:14;;;;;;;1.48;0.75;;;12.60;81.70;;;;;;4997560;28;20862;-80
2021/05/11 02:35:40;;;;;;;3.55;0.93;;;12.60;81.90;;;;;;4999043;28;20034;-80
2021/05/11 02:38:05;;;;;;;1.05;0.70;;;12.50;81.90;;;;;;4980217;28;20516;-80
2021/05/11 02:40:31;;;;;;;2.00;0.75;;;12.40;82.40;;;;;;4997245;28;20026;-81
2021/05/11 02:43:11;;;;;;;1.50;0.85;;;12.40;82.70;;;;;;4997507;28;20080;-80
2021/05/11 02:45:39;;;;;;;1.27;0.77;;;12.40;82.90;;;;;;4997292;28;20041;-80
2021/05/11 02:48:06;;;;;;;2.40;0.85;;;12.40;82.70;;;;;;4997234;28;20034;-80
2021/05/11 02:50:32;;;;;;;1.73;0.80;;;12.50;82.80;;;;;;4997318;28;20026;-80
2021/05/11 02:52:58;;;;;;;1.58;0.60;;;12.40;83.20;;;;;;4997492;28;20188;-80
2021/05/11 02:55:24;;;;;;;1.95;0.90;;;12.50;82.60;;;;;;4997133;28;20081;-81
2021/05/11 02:57:51;;;;;;;1.42;0.85;;;12.60;83.00;;;;;;4997335;28;20796;-80
2021/05/11 03:00:19;;;;;;;1.30;0.70;;;12.40;82.90;;;;;;4997235;28;20784;-80
2021/05/11 03:02:45;;;;;;;1.98;0.73;;;12.50;82.80;;;;;;4997305;28;20046;-80
2021/05/11 03:05:12;;;;;;;2.10;0.98;;;12.60;82.70;;;;;;5014850;28;20045;-81
2021/05/11 03:07:37;;;;;;;1.30;0.70;;;12.60;82.40;;;;;;5016633;28;20049;-80
2021/05/11 03:10:09;;;;;;;1.65;0.75;;;12.50;82.60;;;;;;4997621;28;20404;-81
2021/05/11 03:12:35;;;;;;;1.13;0.60;;;12.50;83.70;;;;;;4997092;28;20022;-81
2021/05/11 03:15:01;;;;;;;2.65;1.05;;;12.40;83.30;;;;;;4996791;28;20026;-80
2021/05/11 03:17:27;;;;;;;2.65;1.05;;;12.40;83.40;;;;;;4996874;28;20030;-80
2021/05/11 03:19:53;;;;;;;1.58;0.70;;;12.50;82.90;;;;;;4996683;28;20194;-80
2021/05/11 03:22:19;;;;;;;3.22;0.85;;;12.60;82.60;;;;;;4996893;28;20062;-80
2021/05/11 03:24:45;;;;;;;2.90;0.90;;;12.60;82.20;;;;;;5001237;28;20054;-81
2021/05/11 03:27:15;;;;;;;1.88;1.23;;;12.60;82.40;;;;;;5018598;28;20482;-80
2021/05/11 03:29:42;;;;;;;0.80;0.63;;;12.60;81.80;;;;;;4996746;28;20405;-80
2021/05/11 03:32:08;;;;;;;1.67;0.80;;;12.60;82.40;;;;;;4996784;28;20066;-81
2021/05/11 03:34:35;;;;;;;2.45;1.08;;;12.50;82.70;;;;;;4991922;28;20040;-80
2021/05/11 03:37:02;;;;;;;1.73;0.80;;;12.50;82.50;;;;;;4996454;28;20513;-81
2021/05/11 03:39:31;;;;;;;0.68;0.50;;;12.50;82.70;;;;;;4996676;28;20030;-80
2021/05/11 03:42:27;;;;;;;3.50;1.08;;;12.60;82.40;;;;;;4996313;28;20113;-80
2021/05/11 03:44:56;;;;;;;1.70;0.85;;;12.50;83.00;;;;;;4996547;28;20065;-80
2021/05/11 03:47:24;;;;;;;1.33;0.85;;;12.40;82.80;;;;;;4995291;28;20121;-80
2021/05/11 03:49:49;;;;;;;1.02;0.70;;;12.40;82.60;;;;;;4996981;28;20073;-81
2021/05/11 03:52:15;;;;;;;1.38;0.77;;;12.30;82.70;;;;;;4996523;28;20015;-80
2021/05/11 03:54:41;;;;;;;1.98;1.00;;;12.30;83.50;;;;;;4997199;28;20065;-80
2021/05/11 03:57:07;;;;;;;1.98;0.90;;;12.20;83.10;;;;;;4995982;28;20054;-80
2021/05/11 03:59:35;;;;;;;1.20;0.63;;;12.10;83.50;;;;;;4996338;28;20401;-81
2021/05/11 04:02:00;;;;;;;1.58;0.80;;;12.10;83.50;;;;;;4978467;28;20049;-81
2021/05/11 04:04:26;;;;;;;1.80;0.70;;;12.00;83.90;;;;;;4994362;28;20393;-80
2021/05/11 04:06:52;;;;;;;1.92;0.80;;;12.10;83.50;;;;;;4995893;28;20397;-80
2021/05/11 04:12:09;;;;;;;3.03;0.93;;;12.10;83.90;;;;;;4995535;28;20118;-80
2021/05/11 04:17:32;;;;;;;1.40;0.65;;;12.00;83.50;;;;;;4962834;28;20026;-81
2021/05/11 04:19:58;;;;;;;1.73;0.63;;;12.00;82.90;;;;;;4995683;28;20029;-81
2021/05/11 04:22:26;;;;;;;1.55;0.70;;;12.10;82.60;;;;;;4978676;28;20033;-80
2021/05/11 04:24:54;;;;;;;1.65;0.70;;;12.10;82.30;;;;;;5002340;28;20388;-80
2021/05/11 04:27:20;;;;;;;2.67;0.93;;;12.10;82.20;;;;;;5011213;28;20035;-80
2021/05/11 04:29:48;;;;;;;1.13;0.80;;;12.10;82.00;;;;;;4996037;28;20052;-80
2021/05/11 04:32:14;;;;;;;0.77;0.60;;;12.10;81.50;;;;;;4992195;28;20038;-80
2021/05/11 04:34:39;;;;;;;1.00;0.70;;;12.10;81.40;;;;;;4995482;28;20077;-80
2021/05/11 04:37:05;;;;;;;2.22;0.70;;;12.10;81.30;;;;;;4995576;28;20034;-80
2021/05/11 04:39:30;;;;;;;0.80;0.60;;;12.10;81.10;;;;;;4995624;28;20069;-79
2021/05/11 04:41:56;;;;;;;1.88;0.75;;;12.00;81.10;;;;;;4995061;28;20037;-81
2021/05/11 04:44:26;;;;;;;2.58;0.80;;;12.00;81.00;;;;;;4995726;28;20026;-80
2021/05/11 04:46:59;;;;;;;1.83;0.60;;;12.00;81.10;;;;;;4995335;28;20493;-75
2021/05/11 04:49:25;;;;;;;1.23;0.70;;;12.00;81.00;;;;;;4992835;28;20068;-75
2021/05/11 04:51:51;;;;;;;0.70;0.57;;;11.90;81.10;;;;;;4995501;28;20527;-74
2021/05/11 04:54:17;;;;;;;0.95;0.60;;;12.00;81.30;;;;;;4995288;28;20114;-77
2021/05/11 04:56:42;;;;;;;0.98;0.80;;;12.00;81.30;;;;;;4995060;28;20496;-75
2021/05/11 04:59:08;;;;;;;1.25;0.75;;;11.90;81.80;;;;;;4994876;28;20501;-76
2021/05/11 05:01:34;;;;;;;1.33;0.65;;;11.80;81.80;;;;;;4995210;28;20374;-75
2021/05/11 05:04:01;;;;;;;2.65;1.40;;;11.90;82.10;;;;;;4995000;28;20041;-76
2021/05/11 05:06:27;;;;;;;1.25;0.70;;;11.80;82.00;;;;;;4994855;28;20448;-75
2021/05/11 05:08:52;;;;;;;1.52;0.68;;;11.90;81.50;;;;;;4995126;28;20084;-76
2021/05/11 05:11:18;;;;;;;1.52;0.68;;;12.00;81.60;;;;;;4977782;28;20505;-76
2021/05/11 05:13:44;;;;;;;1.02;0.68;;;12.00;81.80;;;;;;4995080;28;20031;-76
2021/05/11 05:16:10;;;;;;;1.05;0.70;;;12.00;81.00;;;;;;4995051;28;20086;-77
2021/05/11 05:18:36;;;;;;;1.25;0.93;;;12.00;81.40;;;;;;4986614;28;20671;-77
2021/05/11 05:21:06;;;;;;;2.22;0.90;;;12.00;81.30;;;;;;5009185;28;20057;-81
2021/05/11 05:23:38;;;;;;;1.08;0.75;;;12.00;81.50;;;;;;5013383;28;20032;-80
2021/05/11 05:26:06;;;;;;;1.63;0.80;;;12.00;81.70;;;;;;5009750;28;20050;-81
2021/05/11 05:28:36;;;;;;;1.25;0.80;;;12.00;81.70;;;;;;5014046;28;20018;-79
2021/05/11 05:31:02;;;;;;;1.63;0.70;;;12.10;81.50;;;;;;5005095;28;20018;-79
2021/05/11 05:33:39;;;;;;;1.17;0.63;;;12.10;81.40;;;;;;4990388;28;20092;-78
2021/05/11 05:36:06;;;;;;;1.05;0.60;;;12.10;81.20;;;;;;4990005;28;20019;-79
2021/05/11 05:38:33;;;;;;;0.63;0.50;;;12.10;81.60;;;;;;4994390;28;20030;-79
2021/05/11 05:41:02;;;;;;;1.58;0.73;;;12.10;81.80;;;;;;4994129;28;20022;-79
2021/05/11 05:43:28;;;;;;;1.63;0.70;;;12.20;81.20;;;;;;4994623;28;20024;-79
2021/05/11 05:45:54;;;;;;;1.10;0.60;;;12.30;80.80;;;;;;4994476;28;20405;-79
2021/05/11 05:48:20;;;;;;;1.38;0.73;;;12.20;81.00;;;;;;4994241;28;20096;-79
2021/05/11 05:50:49;;;;;;;1.92;0.70;;;12.20;80.80;;;;;;5005113;28;20393;-76
2021/05/11 05:53:23;;;;;;;1.20;0.73;;;12.30;81.10;;;;;;5014579;28;20025;-76
2021/05/11 05:55:49;;;;;;;2.65;0.90;;;12.40;80.70;;;;;;5024358;28;20492;-76
2021/05/11 05:58:15;;;;;;;1.50;0.73;;;12.50;80.80;;;;;;5005296;28;20030;-76
2021/05/11 06:00:41;;;;;;;1.50;0.70;;;12.40;80.40;;;;;;4993820;28;20060;-76
2021/05/11 06:03:17;;;;;;;1.70;0.70;;;12.50;80.00;;;;;;4994006;28;20034;-76
2021/05/11 06:05:43;;;;;;;1.23;0.68;;;12.50;80.90;;;;;;4993461;28;20509;-76
2021/05/11 06:08:08;;;;;;;1.17;0.70;;;12.50;80.80;;;;;;4994343;28;20101;-75
2021/05/11 06:10:34;;;;;;;2.45;0.80;;;12.50;80.70;;;;;;4995367;28;20022;-76
2021/05/11 06:13:08;;;;;;;0.95;0.57;;;12.60;80.60;;;;;;4997689;28;20034;-76
2021/05/11 06:18:20;;;;;;;0.55;0.47;;;12.70;80.10;;;;;;4997512;28;20057;-76
2021/05/11 06:20:45;;;;;;;1.50;0.60;;;12.70;80.40;;;;;;4997391;28;20470;-76
2021/05/11 06:23:11;;;;;;;1.60;0.90;;;12.80;80.20;;;;;;4996911;28;20045;-76
2021/05/11 06:25:42;;;;;;;1.85;0.80;;;12.90;79.80;;;;;;5016272;28;20046;-75
2021/05/11 06:28:08;;;;;;;1.20;0.80;;;12.90;79.90;;;;;;5028743;28;20034;-76
2021/05/11 18:59:38;;;;;;;2.42;1.25;;;14.70;64.20;;;;;;5105630;27;20372;-77
2021/05/11 19:02:03;;;;;;;2.58;0.85;;;14.40;64.40;;;;;;5092216;28;20073;-77
2021/05/11 19:04:29;;;;;;;3.15;0.93;;;14.60;63.60;;;;;;5102210;28;20093;-75
2021/05/11 19:06:54;;;;;;;3.03;1.08;;;14.80;62.30;;;;;;5106971;28;20024;-75
2021/05/11 19:09:20;;;;;;;2.38;1.02;;;15.00;61.50;;;;;;5096867;28;20044;-76
2021/05/11 19:11:47;;;;;;;2.20;0.90;;;15.10;59.90;;;;;;5105428;28;20028;-75
2021/05/11 19:14:12;;;;;;;1.90;1.00;;;15.10;59.70;;;;;;5106591;28;20031;-75
2021/05/11 19:16:40;;;;;;;2.28;0.77;;;15.20;59.50;;;;;;5104366;28;20033;-75
2021/05/11 19:19:07;;;;;;;2.05;0.80;;;15.30;59.10;;;;;;5107362;28;20070;-75
2021/05/11 19:21:33;;;;;;;3.40;1.20;;;15.20;58.80;;;;;;5105195;28;20398;-75
2021/05/11 19:23:59;;;;;;;2.70;0.82;;;15.20;59.30;;;;;;5112250;28;20025;-75
2021/05/11 19:26:24;;;;;;;1.67;0.98;;;15.20;58.70;;;;;;5106004;28;20028;-75
2021/05/11 19:28:50;;;;;;;1.40;0.70;;;15.20;58.60;;;;;;5100552;28;20100;-75
2021/05/11 19:31:16;;;;;;;1.30;0.52;;;15.10;58.90;;;;;;5105655;28;20028;-75
2021/05/11 19:33:45;;;;;;;4.15;1.10;;;15.00;59.30;;;;;;5106323;28;20039;-75
2021/05/11 19:36:12;;;;;;;2.57;0.80;;;15.00;59.50;;;;;;5103779;28;20020;-75
2021/05/11 19:38:44;;;;;;;0.85;0.52;;;14.80;59.50;;;;;;5104738;28;20054;-75
2021/05/11 19:41:11;;;;;;;0.88;0.50;;;14.70;59.70;;;;;;5106190;28;20024;-75
2021/05/11 19:43:39;;;;;;;1.50;0.70;;;14.80;59.30;;;;;;5106644;28;20026;-76
2021/05/11 19:46:08;;;;;;;1.48;0.55;;;14.60;59.20;;;;;;5100958;28;20033;-75
2021/05/11 19:48:35;;;;;;;1.63;0.60;;;14.60;58.80;;;;;;5106946;28;20020;-75
2021/05/11 19:51:02;;;;;;;1.63;0.60;;;14.60;59.40;;;;;;5109913;28;20335;-75
2021/05/11 19:53:28;;;;;;;1.27;0.50;;;14.70;59.80;;;;;;5103799;28;20036;-76
2021/05/11 19:55:57;;;;;;;1.30;0.70;;;14.70;59.80;;;;;;5100409;28;20023;-75
2021/05/11 19:58:25;;;;;;;2.60;0.68;;;14.70;60.00;;;;;;5097692;28;20040;-75
2021/05/11 20:00:51;;;;;;;2.50;0.80;;;14.60;61.70;;;;;;5104489;28;20763;-75
2021/05/11 20:03:19;;;;;;;2.88;0.90;;;14.70;60.70;;;;;;5098353;28;20532;-75
2021/05/11 20:05:44;;;;;;;2.25;0.47;;;14.50;61.40;;;;;;5103053;28;20035;-75
2021/05/11 20:08:10;;;;;;;1.40;0.70;;;14.30;61.50;;;;;;5106659;28;20019;-75
2021/05/11 20:10:36;;;;;;;2.38;0.65;;;14.40;62.30;;;;;;5094393;28;20122;-76
2021/05/11 20:13:02;;;;;;;1.73;0.65;;;14.30;62.40;;;;;;5092324;28;20024;-75
2021/05/11 20:15:28;;;;;;;2.25;0.88;;;14.30;62.10;;;;;;5088636;28;20040;-75
2021/05/11 20:17:57;;;;;;;0.98;0.68;;;14.30;62.50;;;;;;5092092;28;20085;-75
2021/05/11 20:20:24;;;;;;;2.85;0.73;;;14.30;61.60;;;;;;5085947;28;20032;-76
2021/05/11 20:22:51;;;;;;;1.30;0.63;;;14.20;62.00;;;;;;5074347;28;20024;-77
2021/05/11 20:25:17;;;;;;;1.33;0.52;;;14.10;62.70;;;;;;5083296;28;20024;-76
2021/05/11 20:27:43;;;;;;;1.02;0.60;;;14.10;62.50;;;;;;5083410;28;20032;-76
2021/05/11 20:30:13;;;;;;;1.80;0.70;;;14.00;62.00;;;;;;5087819;28;20024;-76
2021/05/11 20:32:39;;;;;;;1.70;0.70;;;14.00;62.10;;;;;;5095745;28;20028;-75
2021/05/11 20:35:13;;;;;;;1.92;0.60;;;13.90;62.30;;;;;;5092062;28;20085;-76
2021/05/11 20:37:48;;;;;;;2.60;0.65;;;14.00;62.20;;;;;;5091176;28;20024;-76
2021/05/11 20:40:23;;;;;;;0.98;0.60;;;14.00;62.20;;;;;;5081665;28;20033;-76
2021/05/11 20:42:49;;;;;;;1.10;0.52;;;14.00;62.50;;;;;;5084600;28;20024;-76
2021/05/11 20:45:16;;;;;;;1.00;0.50;;;14.00;62.20;;;;;;5094939;28;20024;-75
2021/05/11 20:47:41;;;;;;;2.05;0.95;;;14.00;62.70;;;;;;5095937;28;20020;-74
2021/05/11 20:50:08;;;;;;;1.00;0.55;;;13.90;62.70;;;;;;5090707;28;20024;-74
2021/05/11 20:52:43;;;;;;;1.02;0.60;;;13.90;62.80;;;;;;5096238;28;20022;-75
2021/05/11 20:55:09;;;;;;;1.60;0.70;;;13.80;63.00;;;;;;5095849;28;20066;-74
2021/05/11 20:57:34;;;;;;;1.98;0.50;;;13.80;63.00;;;;;;5096050;28;20032;-75
2021/05/11 21:00:00;;;;;;;1.23;0.63;;;13.70;63.30;;;;;;5096216;28;20036;-75
2021/05/11 21:02:26;;;;;;;2.17;0.70;;;13.70;63.60;;;;;;5085444;28;20063;-75
2021/05/11 21:04:52;;;;;;;2.47;0.80;;;13.70;63.60;;;;;;5088742;28;20039;-75
2021/05/11 21:07:18;;;;;;;1.00;0.60;;;13.60;64.10;;;;;;5095914;28;21514;-75
2021/05/11 21:09:46;;;;;;;1.50;0.73;;;13.60;64.60;;;;;;5094935;28;20048;-75
2021/05/11 21:12:11;;;;;;;1.65;0.60;;;13.70;64.50;;;;;;5095558;28;20028;-75
2021/05/11 21:14:37;;;;;;;1.05;0.55;;;13.70;64.80;;;;;;5095871;28;20035;-75
2021/05/11 21:17:03;;;;;;;1.70;0.80;;;13.60;65.70;;;;;;5096072;28;20016;-75
2021/05/11 21:19:28;;;;;;;2.17;0.68;;;13.60;65.90;;;;;;5094993;28;20101;-75
2021/05/11 21:21:54;;;;;;;2.47;0.90;;;13.60;66.10;;;;;;5111385;28;20030;-75
2021/05/11 21:24:20;;;;;;;2.85;0.90;;;13.60;66.50;;;;;;5083003;28;20153;-75
2021/05/11 21:26:57;;;;;;;2.10;0.82;;;13.50;66.60;;;;;;5095176;28;20028;-75
2021/05/11 21:29:23;;;;;;;1.00;0.50;;;13.50;66.70;;;;;;5096730;28;20035;-75
2021/05/11 21:31:49;;;;;;;2.00;0.60;;;13.40;67.50;;;;;;5096383;28;20024;-75
2021/05/11 21:34:15;;;;;;;2.22;0.65;;;13.30;67.70;;;;;;5094704;28;20101;-75
2021/05/11 21:36:40;;;;;;;2.00;0.60;;;13.20;67.90;;;;;;5112504;28;20089;-75
2021/05/11 21:39:06;;;;;;;2.65;0.70;;;13.20;68.70;;;;;;5106234;28;20056;-75
2021/05/11 21:41:32;;;;;;;2.83;1.00;;;13.10;68.50;;;;;;5075854;28;20028;-75
2021/05/11 21:43:59;;;;;;;1.33;0.60;;;13.10;68.70;;;;;;5079772;28;20039;-75
2021/05/11 21:46:25;;;;;;;2.10;0.82;;;13.10;68.70;;;;;;5076278;28;20095;-75
2021/05/11 21:48:52;;;;;;;3.50;0.80;;;13.00;69.40;;;;;;5091690;28;20131;-75
2021/05/11 21:51:18;;;;;;;0.93;0.50;;;13.00;69.80;;;;;;5083078;28;20486;-75
2021/05/11 21:53:43;;;;;;;3.13;0.90;;;12.80;70.30;;;;;;5096188;28;20067;-75
2021/05/11 21:56:09;;;;;;;1.40;0.68;;;12.80;70.80;;;;;;5095919;28;20052;-75
2021/05/11 21:58:34;;;;;;;3.42;0.70;;;12.80;71.00;;;;;;5097913;28;20067;-75
2021/05/11 22:01:06;;;;;;;1.90;0.70;;;12.90;70.40;;;;;;5074767;28;20028;-75
2021/05/11 22:03:31;;;;;;;2.55;0.73;;;12.90;70.60;;;;;;5074817;28;20036;-75
2021/05/11 22:05:57;;;;;;;2.22;0.70;;;12.80;70.60;;;;;;5075798;28;20025;-75
2021/05/11 22:08:23;;;;;;;2.55;0.90;;;12.80;70.50;;;;;;5091528;28;20044;-75
2021/05/11 22:10:49;;;;;;;3.28;1.10;;;12.70;71.10;;;;;;5075481;28;20024;-75
2021/05/11 22:13:17;;;;;;;2.17;0.60;;;12.70;70.60;;;;;;5098156;28;20024;-75
2021/05/11 22:15:44;;;;;;;1.60;0.85;;;12.70;70.50;;;;;;5094771;28;20115;-75
2021/05/11 22:18:10;;;;;;;2.88;0.50;;;12.70;70.30;;;;;;5090882;28;20032;-75
2021/05/11 22:20:38;;;;;;;1.50;0.70;;;12.80;70.00;;;;;;5075531;28;20510;-75
2021/05/11 22:23:04;;;;;;;0.90;0.60;;;12.70;69.80;;;;;;5091139;28;20035;-75
2021/05/11 22:25:31;;;;;;;2.25;0.80;;;12.80;69.80;;;;;;5079569;28;20032;-75
2021/05/11 22:27:57;;;;;;;2.33;0.93;;;12.70;69.90;;;;;;5090713;28;20024;-75
2021/05/11 22:30:24;;;;;;;2.15;0.60;;;12.70;69.70;;;;;;5089793;28;20495;-75
2021/05/11 22:32:50;;;;;;;2.80;0.80;;;12.80;69.20;;;;;;5094739;28;20024;-75
2021/05/11 22:35:21;;;;;;;2.40;0.70;;;12.70;69.90;;;;;;5095638;28;20020;-75
2021/05/11 22:37:48;;;;;;;2.08;0.80;;;12.60;70.40;;;;;;5095039;28;20039;-75
2021/05/11 22:40:22;;;;;;;1.45;0.90;;;12.40;71.80;;;;;;5093901;28;20031;-75
2021/05/11 22:42:57;;;;;;;0.98;0.75;;;12.40;72.20;;;;;;5110904;28;20409;-75
2021/05/11 22:45:24;;;;;;;3.67;0.82;;;12.40;72.30;;;;;;5095934;28;20024;-75
2021/05/11 22:48:04;;;;;;;2.83;0.77;;;12.40;72.30;;;;;;5086120;28;20028;-75
2021/05/11 22:50:44;;;;;;;4.40;1.10;;;12.40;73.00;;;;;;5090909;28;20036;-75
2021/05/11 22:53:12;;;;;;;1.05;0.65;;;12.30;72.80;;;;;;5090798;28;20054;-75
2021/05/11 22:55:39;;;;;;;1.73;0.80;;;12.30;72.90;;;;;;5090457;28;20017;-75
2021/05/11 22:58:06;;;;;;;3.00;0.93;;;12.30;73.40;;;;;;5074879;28;20081;-75
2021/05/11 23:00:33;;;;;;;2.97;0.90;;;12.20;73.70;;;;;;5093220;28;20039;-75
2021/05/11 23:02:59;;;;;;;3.55;1.00;;;12.20;74.10;;;;;;5094826;28;20743;-75
2021/05/11 23:05:25;;;;;;;3.53;0.90;;;12.20;74.00;;;;;;5094275;28;20016;-75
2021/05/11 23:07:51;;;;;;;2.35;0.90;;;12.20;73.90;;;;;;5093907;28;20043;-75
2021/05/11 23:10:17;;;;;;;3.65;0.90;;;12.10;74.30;;;;;;5098547;28;20025;-75
2021/05/11 23:12:44;;;;;;;3.38;1.05;;;12.10;75.00;;;;;;5075016;28;20016;-76
2021/05/11 23:15:11;;;;;;;3.63;0.90;;;12.10;74.40;;;;;;5075236;28;20020;-75
2021/05/11 23:17:43;;;;;;;4.22;1.05;;;12.00;74.70;;;;;;5090585;28;20078;-74
2021/05/11 23:20:09;;;;;;;2.30;1.02;;;12.10;74.30;;;;;;5090839;28;20085;-75
2021/05/11 23:22:34;;;;;;;3.72;1.02;;;12.10;74.20;;;;;;5073495;28;20032;-76
2021/05/11 23:25:00;;;;;;;3.58;1.50;;;12.10;74.30;;;;;;5079476;28;20028;-75
2021/05/11 23:27:26;;;;;;;1.98;1.10;;;12.00;75.10;;;;;;5093991;28;20028;-75
2021/05/11 23:29:51;;;;;;;2.28;1.05;;;11.90;74.80;;;;;;5093884;28;20055;-75
2021/05/11 23:32:19;;;;;;;3.10;1.00;;;11.90;74.90;;;;;;5089873;28;20028;-75
2021/05/11 23:34:45;;;;;;;3.97;0.98;;;11.80;75.00;;;;;;5090549;28;20078;-75
2021/05/11 23:37:10;;;;;;;2.90;0.80;;;11.90;74.80;;;;;;5074902;28;20086;-75
2021/05/11 23:39:36;;;;;;;4.10;1.20;;;11.90;74.70;;;;;;5074641;28;20074;-75
2021/05/11 23:42:02;;;;;;;3.20;1.20;;;11.80;74.70;;;;;;5075052;28;20032;-75
2021/05/11 23:44:27;;;;;;;3.60;0.88;;;11.80;74.70;;;;;;5077404;28;20043;-75
2021/05/11 23:46:59;;;;;;;2.97;0.80;;;11.80;74.70;;;;;;5094219;28;20495;-75
2021/05/11 23:49:24;;;;;;;2.10;0.88;;;11.80;74.60;;;;;;5094288;28;20025;-75
2021/05/11 23:51:50;;;;;;;2.58;0.98;;;11.80;74.20;;;;;;5078352;28;20032;-74
2021/05/11 23:54:16;;;;;;;3.08;0.93;;;11.80;74.70;;;;;;5078562;28;20027;-75
2021/05/11 23:56:41;;;;;;;2.13;0.88;;;11.80;74.20;;;;;;5078391;28;20433;-75
2021/05/11 23:59:07;;;;;;;2.92;1.10;;;11.80;74.20;;;;;;5087837;28;20510;-75
